sensor_id;sensor_type;location;lat;lon;timestamp;P1;durP1;ratioP1;P2;durP2;ratioP2
66542;SDS011;53395;37.360;-122.046;2023-02-28T00:00:08;3.85;;;0.73;;
66542;SDS011;53395;37.360;-122.046;2023-02-28T00:02:37;6.80;;;0.73;;
66542;SDS011;53395;37.360;-122.046;2023-02-28T00:05:04;7.00;;;1.00;;
66542;SDS011;53395;37.360;-122.046;2023-02-28T00:07:30;4.15;;;0.90;;
66542;SDS011;53395;37.360;-122.046;2023-02-28T00:09:56;8.52;;;0.70;;
66542;SDS011;53395;37.360;-122.046;2023-02-28T00:12:22;4.97;;;0.63;;
66542;SDS011;53395;37.360;-122.046;2023-02-28T00:14:48;7.40;;;0.82;;
66542;SDS011;53395;37.360;-122.046;2023-02-28T00:17:14;11.70;;;0.93;;
66542;SDS011;53395;37.360;-122.046;2023-02-28T00:24:32;9.73;;;1.77;;
66542;SDS011;53395;37.360;-122.046;2023-02-28T00:26:58;10.25;;;1.45;;
66542;SDS011;53395;37.360;-122.046;2023-02-28T00:29:24;6.22;;;0.77;;
66542;SDS011;53395;37.360;-122.046;2023-02-28T00:31:50;5.40;;;1.08;;
66542;SDS011;53395;37.360;-122.046;2023-02-28T00:34:15;9.32;;;0.88;;
66542;SDS011;53395;37.360;-122.046;2023-02-28T00:36:41;10.40;;;1.08;;
66542;SDS011;53395;37.360;-122.046;2023-02-28T00:39:10;8.18;;;1.08;;
66542;SDS011;53395;37.360;-122.046;2023-02-28T00:41:36;8.95;;;1.15;;
66542;SDS011;53395;37.360;-122.046;2023-02-28T00:44:02;5.57;;;0.85;;
66542;SDS011;53395;37.360;-122.046;2023-02-28T00:46:28;9.18;;;0.85;;
66542;SDS011;53395;37.360;-122.046;2023-02-28T00:48:54;7.90;;;1.00;;
66542;SDS011;53395;37.360;-122.046;2023-02-28T00:51:20;8.75;;;0.98;;
66542;SDS011;53395;37.360;-122.046;2023-02-28T00:53:46;5.60;;;1.13;;
66542;SDS011;53395;37.360;-122.046;2023-02-28T00:56:11;7.60;;;0.90;;
66542;SDS011;53395;37.360;-122.046;2023-02-28T00:58:37;8.68;;;0.98;;
66542;SDS011;53395;37.360;-122.046;2023-02-28T01:01:03;8.90;;;1.10;;
66542;SDS011;53395;37.360;-122.046;2023-02-28T01:03:29;9.02;;;1.67;;
66542;SDS011;53395;37.360;-122.046;2023-02-28T01:05:55;7.80;;;0.98;;
66542;SDS011;53395;37.360;-122.046;2023-02-28T01:08:21;11.05;;;1.13;;
66542;SDS011;53395;37.360;-122.046;2023-02-28T01:10:49;8.52;;;1.23;;
66542;SDS011;53395;37.360;-122.046;2023-02-28T01:13:15;12.57;;;1.33;;
66542;SDS011;53395;37.360;-122.046;2023-02-28T01:15:41;13.38;;;1.40;;
66542;SDS011;53395;37.360;-122.046;2023-02-28T01:18:08;8.38;;;1.05;;
66542;SDS011;53395;37.360;-122.046;2023-02-28T01:20:36;8.00;;;0.90;;
66542;SDS011;53395;37.360;-122.046;2023-02-28T01:23:02;11.15;;;1.27;;
66542;SDS011;53395;37.360;-122.046;2023-02-28T01:25:28;10.55;;;1.40;;
66542;SDS011;53395;37.360;-122.046;2023-02-28T01:27:54;11.38;;;1.48;;
66542;SDS011;53395;37.360;-122.046;2023-02-28T01:30:20;8.75;;;1.20;;
66542;SDS011;53395;37.360;-122.046;2023-02-28T01:32:45;10.73;;;1.42;;
66542;SDS011;53395;37.360;-122.046;2023-02-28T01:35:11;8.82;;;1.50;;
66542;SDS011;53395;37.360;-122.046;2023-02-28T01:37:37;9.05;;;1.23;;
66542;SDS011;53395;37.360;-122.046;2023-02-28T01:40:03;13.88;;;1.20;;
66542;SDS011;53395;37.360;-122.046;2023-02-28T01:42:29;5.97;;;1.20;;
66542;SDS011;53395;37.360;-122.046;2023-02-28T01:44:57;13.35;;;1.40;;
66542;SDS011;53395;37.360;-122.046;2023-02-28T01:47:25;11.00;;;1.40;;
66542;SDS011;53395;37.360;-122.046;2023-02-28T01:49:55;12.23;;;1.25;;
66542;SDS011;53395;37.360;-122.046;2023-02-28T01:52:21;8.93;;;1.20;;
66542;SDS011;53395;37.360;-122.046;2023-02-28T01:54:50;9.85;;;1.38;;
66542;SDS011;53395;37.360;-122.046;2023-02-28T01:57:18;9.73;;;1.45;;
66542;SDS011;53395;37.360;-122.046;2023-02-28T01:59:48;9.73;;;1.00;;
66542;SDS011;53395;37.360;-122.046;2023-02-28T02:02:15;8.13;;;1.30;;
66542;SDS011;53395;37.360;-122.046;2023-02-28T02:04:44;9.60;;;1.40;;
66542;SDS011;53395;37.360;-122.046;2023-02-28T02:07:12;13.35;;;1.50;;
66542;SDS011;53395;37.360;-122.046;2023-02-28T02:09:38;8.90;;;1.20;;
66542;SDS011;53395;37.360;-122.046;2023-02-28T02:12:09;8.25;;;1.40;;
66542;SDS011;53395;37.360;-122.046;2023-02-28T02:14:48;14.80;;;1.60;;
66542;SDS011;53395;37.360;-122.046;2023-02-28T02:17:19;7.78;;;1.05;;
66542;SDS011;53395;37.360;-122.046;2023-02-28T02:23:18;12.50;;;1.48;;
66542;SDS011;53395;37.360;-122.046;2023-02-28T02:25:25;6.03;;;1.42;;
66542;SDS011;53395;37.360;-122.046;2023-02-28T02:33:06;10.68;;;1.88;;
66542;SDS011;53395;37.360;-122.046;2023-02-28T02:35:38;9.73;;;1.33;;
66542;SDS011;53395;37.360;-122.046;2023-02-28T02:43:22;6.18;;;1.30;;
66542;SDS011;53395;37.360;-122.046;2023-02-28T02:45:54;14.95;;;1.90;;
66542;SDS011;53395;37.360;-122.046;2023-02-28T02:48:21;16.58;;;2.30;;
66542;SDS011;53395;37.360;-122.046;2023-02-28T02:50:52;14.48;;;2.83;;
66542;SDS011;53395;37.360;-122.046;2023-02-28T02:53:21;9.15;;;2.40;;
66542;SDS011;53395;37.360;-122.046;2023-02-28T02:55:50;10.30;;;1.77;;
66542;SDS011;53395;37.360;-122.046;2023-02-28T02:58:20;15.30;;;4.32;;
66542;SDS011;53395;37.360;-122.046;2023-02-28T03:00:48;32.80;;;9.70;;
66542;SDS011;53395;37.360;-122.046;2023-02-28T03:03:16;13.48;;;2.75;;
66542;SDS011;53395;37.360;-122.046;2023-02-28T03:05:46;15.13;;;2.28;;
66542;SDS011;53395;37.360;-122.046;2023-02-28T03:08:12;8.30;;;1.90;;
66542;SDS011;53395;37.360;-122.046;2023-02-28T03:18:15;11.73;;;2.35;;
66542;SDS011;53395;37.360;-122.046;2023-02-28T03:20:55;16.10;;;4.25;;
66542;SDS011;53395;37.360;-122.046;2023-02-28T03:24:07;20.27;;;4.90;;
66542;SDS011;53395;37.360;-122.046;2023-02-28T03:26:17;11.80;;;2.40;;
66542;SDS011;53395;37.360;-122.046;2023-02-28T03:33:59;9.13;;;2.00;;
66542;SDS011;53395;37.360;-122.046;2023-02-28T03:36:27;10.90;;;1.75;;
66542;SDS011;53395;37.360;-122.046;2023-02-28T03:39:28;7.93;;;1.73;;
66542;SDS011;53395;37.360;-122.046;2023-02-28T03:41:56;12.35;;;2.10;;
66542;SDS011;53395;37.360;-122.046;2023-02-28T03:49:53;11.60;;;1.55;;
66542;SDS011;53395;37.360;-122.046;2023-02-28T03:52:20;7.75;;;1.63;;
66542;SDS011;53395;37.360;-122.046;2023-02-28T03:54:54;12.18;;;1.67;;
66542;SDS011;53395;37.360;-122.046;2023-02-28T03:57:38;11.30;;;1.38;;
66542;SDS011;53395;37.360;-122.046;2023-02-28T04:00:09;7.60;;;1.50;;
66542;SDS011;53395;37.360;-122.046;2023-02-28T04:02:36;8.32;;;1.45;;
66542;SDS011;53395;37.360;-122.046;2023-02-28T04:05:03;7.75;;;1.63;;
66542;SDS011;53395;37.360;-122.046;2023-02-28T04:07:29;7.35;;;1.38;;
66542;SDS011;53395;37.360;-122.046;2023-02-28T04:09:55;7.20;;;1.42;;
66542;SDS011;53395;37.360;-122.046;2023-02-28T04:12:21;8.65;;;1.58;;
66542;SDS011;53395;37.360;-122.046;2023-02-28T04:14:48;6.20;;;1.77;;
66542;SDS011;53395;37.360;-122.046;2023-02-28T04:17:15;9.82;;;1.55;;
66542;SDS011;53395;37.360;-122.046;2023-02-28T04:19:41;11.20;;;2.00;;
66542;SDS011;53395;37.360;-122.046;2023-02-28T04:22:07;10.02;;;1.70;;
66542;SDS011;53395;37.360;-122.046;2023-02-28T04:24:33;5.20;;;1.48;;
66542;SDS011;53395;37.360;-122.046;2023-02-28T04:26:59;7.55;;;1.65;;
66542;SDS011;53395;37.360;-122.046;2023-02-28T04:29:26;9.73;;;1.90;;
66542;SDS011;53395;37.360;-122.046;2023-02-28T04:31:53;7.47;;;1.35;;
66542;SDS011;53395;37.360;-122.046;2023-02-28T04:34:19;8.45;;;1.48;;
66542;SDS011;53395;37.360;-122.046;2023-02-28T04:36:46;9.18;;;1.52;;
66542;SDS011;53395;37.360;-122.046;2023-02-28T04:39:14;7.47;;;1.60;;
66542;SDS011;53395;37.360;-122.046;2023-02-28T04:41:40;4.30;;;1.13;;
66542;SDS011;53395;37.360;-122.046;2023-02-28T04:44:06;7.55;;;1.38;;
66542;SDS011;53395;37.360;-122.046;2023-02-28T04:46:32;6.03;;;1.10;;
66542;SDS011;53395;37.360;-122.046;2023-02-28T04:48:58;9.75;;;1.20;;
66542;SDS011;53395;37.360;-122.046;2023-02-28T04:51:24;7.80;;;1.13;;
66542;SDS011;53395;37.360;-122.046;2023-02-28T04:53:50;11.02;;;1.50;;
66542;SDS011;53395;37.360;-122.046;2023-02-28T04:56:16;4.88;;;1.10;;
66542;SDS011;53395;37.360;-122.046;2023-02-28T04:58:43;7.75;;;1.30;;
66542;SDS011;53395;37.360;-122.046;2023-02-28T05:03:43;6.45;;;1.48;;
66542;SDS011;53395;37.360;-122.046;2023-02-28T05:06:10;7.30;;;1.40;;
66542;SDS011;53395;37.360;-122.046;2023-02-28T05:08:36;6.43;;;1.42;;
66542;SDS011;53395;37.360;-122.046;2023-02-28T05:11:03;7.47;;;1.35;;
66542;SDS011;53395;37.360;-122.046;2023-02-28T05:13:29;9.05;;;1.63;;
66542;SDS011;53395;37.360;-122.046;2023-02-28T05:15:55;6.65;;;1.60;;
66542;SDS011;53395;37.360;-122.046;2023-02-28T05:18:21;6.85;;;1.65;;
66542;SDS011;53395;37.360;-122.046;2023-02-28T05:20:47;6.30;;;1.02;;
66542;SDS011;53395;37.360;-122.046;2023-02-28T05:23:13;5.40;;;1.30;;
66542;SDS011;53395;37.360;-122.046;2023-02-28T05:25:39;8.02;;;1.63;;
66542;SDS011;53395;37.360;-122.046;2023-02-28T05:28:05;6.07;;;1.30;;
66542;SDS011;53395;37.360;-122.046;2023-02-28T05:30:31;9.98;;;1.23;;
66542;SDS011;53395;37.360;-122.046;2023-02-28T05:32:57;6.70;;;1.52;;
66542;SDS011;53395;37.360;-122.046;2023-02-28T05:35:24;5.28;;;1.05;;
66542;SDS011;53395;37.360;-122.046;2023-02-28T05:37:50;5.97;;;1.10;;
66542;SDS011;53395;37.360;-122.046;2023-02-28T05:40:16;7.63;;;1.60;;
66542;SDS011;53395;37.360;-122.046;2023-02-28T05:42:42;4.80;;;1.08;;
66542;SDS011;53395;37.360;-122.046;2023-02-28T05:45:08;6.30;;;1.67;;
66542;SDS011;53395;37.360;-122.046;2023-02-28T05:47:34;7.03;;;1.45;;
66542;SDS011;53395;37.360;-122.046;2023-02-28T05:50:00;9.45;;;1.90;;
66542;SDS011;53395;37.360;-122.046;2023-02-28T05:52:27;9.18;;;1.60;;
66542;SDS011;53395;37.360;-122.046;2023-02-28T05:54:53;6.47;;;1.70;;
66542;SDS011;53395;37.360;-122.046;2023-02-28T05:57:18;7.03;;;1.65;;
66542;SDS011;53395;37.360;-122.046;2023-02-28T05:59:44;6.50;;;1.63;;
66542;SDS011;53395;37.360;-122.046;2023-02-28T06:02:14;8.32;;;1.73;;
66542;SDS011;53395;37.360;-122.046;2023-02-28T06:04:40;5.15;;;1.40;;
66542;SDS011;53395;37.360;-122.046;2023-02-28T06:07:06;8.68;;;1.50;;
66542;SDS011;53395;37.360;-122.046;2023-02-28T06:09:32;8.10;;;1.65;;
66542;SDS011;53395;37.360;-122.046;2023-02-28T06:11:59;9.05;;;1.63;;
66542;SDS011;53395;37.360;-122.046;2023-02-28T06:14:25;6.85;;;1.92;;
66542;SDS011;53395;37.360;-122.046;2023-02-28T06:16:50;3.05;;;1.13;;
66542;SDS011;53395;37.360;-122.046;2023-02-28T06:19:16;11.77;;;1.63;;
66542;SDS011;53395;37.360;-122.046;2023-02-28T06:21:42;8.73;;;1.40;;
66542;SDS011;53395;37.360;-122.046;2023-02-28T06:24:08;9.35;;;1.80;;
66542;SDS011;53395;37.360;-122.046;2023-02-28T06:26:34;7.90;;;1.50;;
66542;SDS011;53395;37.360;-122.046;2023-02-28T06:29:00;7.45;;;1.30;;
66542;SDS011;53395;37.360;-122.046;2023-02-28T06:31:26;7.53;;;1.55;;
66542;SDS011;53395;37.360;-122.046;2023-02-28T06:33:54;10.02;;;1.20;;
66542;SDS011;53395;37.360;-122.046;2023-02-28T06:36:20;5.32;;;1.00;;
66542;SDS011;53395;37.360;-122.046;2023-02-28T06:38:46;7.57;;;1.75;;
66542;SDS011;53395;37.360;-122.046;2023-02-28T06:41:16;7.60;;;1.58;;
66542;SDS011;53395;37.360;-122.046;2023-02-28T06:43:42;5.93;;;1.35;;
66542;SDS011;53395;37.360;-122.046;2023-02-28T06:46:10;10.23;;;1.90;;
66542;SDS011;53395;37.360;-122.046;2023-02-28T06:48:36;11.32;;;2.42;;
66542;SDS011;53395;37.360;-122.046;2023-02-28T06:51:06;7.75;;;1.63;;
66542;SDS011;53395;37.360;-122.046;2023-02-28T06:53:32;8.20;;;1.90;;
66542;SDS011;53395;37.360;-122.046;2023-02-28T06:55:58;8.88;;;1.80;;
66542;SDS011;53395;37.360;-122.046;2023-02-28T06:58:24;12.95;;;1.70;;
66542;SDS011;53395;37.360;-122.046;2023-02-28T07:00:51;7.75;;;1.40;;
66542;SDS011;53395;37.360;-122.046;2023-02-28T07:03:18;12.75;;;1.88;;
66542;SDS011;53395;37.360;-122.046;2023-02-28T07:05:44;11.30;;;1.67;;
66542;SDS011;53395;37.360;-122.046;2023-02-28T07:08:10;10.60;;;1.40;;
66542;SDS011;53395;37.360;-122.046;2023-02-28T07:10:37;10.27;;;2.08;;
66542;SDS011;53395;37.360;-122.046;2023-02-28T07:13:03;5.47;;;1.08;;
66542;SDS011;53395;37.360;-122.046;2023-02-28T07:15:29;7.18;;;1.70;;
66542;SDS011;53395;37.360;-122.046;2023-02-28T07:17:55;5.53;;;1.50;;
66542;SDS011;53395;37.360;-122.046;2023-02-28T07:20:22;11.00;;;1.50;;
66542;SDS011;53395;37.360;-122.046;2023-02-28T07:22:48;6.80;;;1.48;;
66542;SDS011;53395;37.360;-122.046;2023-02-28T07:25:21;7.65;;;1.48;;
66542;SDS011;53395;37.360;-122.046;2023-02-28T07:27:47;10.70;;;1.45;;
66542;SDS011;53395;37.360;-122.046;2023-02-28T07:30:12;7.30;;;1.50;;
66542;SDS011;53395;37.360;-122.046;2023-02-28T07:32:38;9.93;;;1.48;;
66542;SDS011;53395;37.360;-122.046;2023-02-28T07:35:04;11.45;;;1.90;;
66542;SDS011;53395;37.360;-122.046;2023-02-28T07:37:30;6.93;;;1.65;;
66542;SDS011;53395;37.360;-122.046;2023-02-28T07:40:03;12.73;;;2.15;;
66542;SDS011;53395;37.360;-122.046;2023-02-28T07:42:31;10.65;;;1.85;;
66542;SDS011;53395;37.360;-122.046;2023-02-28T07:44:57;11.35;;;1.95;;
66542;SDS011;53395;37.360;-122.046;2023-02-28T07:47:24;9.98;;;2.03;;
66542;SDS011;53395;37.360;-122.046;2023-02-28T07:49:50;11.00;;;1.90;;
66542;SDS011;53395;37.360;-122.046;2023-02-28T07:52:16;8.02;;;1.70;;
66542;SDS011;53395;37.360;-122.046;2023-02-28T07:54:42;6.47;;;1.50;;
66542;SDS011;53395;37.360;-122.046;2023-02-28T07:57:08;11.05;;;2.00;;
66542;SDS011;53395;37.360;-122.046;2023-02-28T07:59:33;7.75;;;1.70;;
66542;SDS011;53395;37.360;-122.046;2023-02-28T08:01:59;13.20;;;1.77;;
66542;SDS011;53395;37.360;-122.046;2023-02-28T08:04:25;11.07;;;1.67;;
66542;SDS011;53395;37.360;-122.046;2023-02-28T08:06:51;12.50;;;1.75;;
66542;SDS011;53395;37.360;-122.046;2023-02-28T08:09:21;13.07;;;1.63;;
66542;SDS011;53395;37.360;-122.046;2023-02-28T08:11:47;8.35;;;1.65;;
66542;SDS011;53395;37.360;-122.046;2023-02-28T08:14:13;8.55;;;1.35;;
66542;SDS011;53395;37.360;-122.046;2023-02-28T08:16:39;11.88;;;1.70;;
66542;SDS011;53395;37.360;-122.046;2023-02-28T08:19:05;8.05;;;1.20;;
66542;SDS011;53395;37.360;-122.046;2023-02-28T08:21:32;8.45;;;1.30;;
66542;SDS011;53395;37.360;-122.046;2023-02-28T08:23:58;7.32;;;1.35;;
66542;SDS011;53395;37.360;-122.046;2023-02-28T08:26:24;4.60;;;1.20;;
66542;SDS011;53395;37.360;-122.046;2023-02-28T08:28:49;5.20;;;1.20;;
66542;SDS011;53395;37.360;-122.046;2023-02-28T08:31:15;6.47;;;1.10;;
66542;SDS011;53395;37.360;-122.046;2023-02-28T08:33:42;3.03;;;0.93;;
66542;SDS011;53395;37.360;-122.046;2023-02-28T08:36:10;7.07;;;1.60;;
66542;SDS011;53395;37.360;-122.046;2023-02-28T08:38:36;9.38;;;1.85;;
66542;SDS011;53395;37.360;-122.046;2023-02-28T08:41:04;10.30;;;1.40;;
66542;SDS011;53395;37.360;-122.046;2023-02-28T08:43:33;20.55;;;6.15;;
66542;SDS011;53395;37.360;-122.046;2023-02-28T08:45:59;16.10;;;4.93;;
66542;SDS011;53395;37.360;-122.046;2023-02-28T08:48:25;14.07;;;3.72;;
66542;SDS011;53395;37.360;-122.046;2023-02-28T08:50:55;6.15;;;1.77;;
66542;SDS011;53395;37.360;-122.046;2023-02-28T08:53:21;9.10;;;1.55;;
66542;SDS011;53395;37.360;-122.046;2023-02-28T08:55:46;8.55;;;1.90;;
66542;SDS011;53395;37.360;-122.046;2023-02-28T08:58:12;7.82;;;1.80;;
66542;SDS011;53395;37.360;-122.046;2023-02-28T09:00:38;6.40;;;1.90;;
66542;SDS011;53395;37.360;-122.046;2023-02-28T09:03:04;5.40;;;1.92;;
66542;SDS011;53395;37.360;-122.046;2023-02-28T09:05:30;8.90;;;2.05;;
66542;SDS011;53395;37.360;-122.046;2023-02-28T09:07:55;10.35;;;2.00;;
66542;SDS011;53395;37.360;-122.046;2023-02-28T09:10:21;7.85;;;2.13;;
66542;SDS011;53395;37.360;-122.046;2023-02-28T09:12:47;14.30;;;1.85;;
66542;SDS011;53395;37.360;-122.046;2023-02-28T09:15:13;8.45;;;2.05;;
66542;SDS011;53395;37.360;-122.046;2023-02-28T09:17:39;12.27;;;2.20;;
66542;SDS011;53395;37.360;-122.046;2023-02-28T09:20:05;11.13;;;2.20;;
66542;SDS011;53395;37.360;-122.046;2023-02-28T09:22:31;7.30;;;1.65;;
66542;SDS011;53395;37.360;-122.046;2023-02-28T09:24:57;5.88;;;1.58;;
66542;SDS011;53395;37.360;-122.046;2023-02-28T09:27:23;12.00;;;1.90;;
66542;SDS011;53395;37.360;-122.046;2023-02-28T09:29:49;9.30;;;1.65;;
66542;SDS011;53395;37.360;-122.046;2023-02-28T09:32:15;7.35;;;1.60;;
66542;SDS011;53395;37.360;-122.046;2023-02-28T09:34:42;10.07;;;2.20;;
66542;SDS011;53395;37.360;-122.046;2023-02-28T09:37:08;7.07;;;1.80;;
66542;SDS011;53395;37.360;-122.046;2023-02-28T09:39:36;10.07;;;1.80;;
66542;SDS011;53395;37.360;-122.046;2023-02-28T09:42:02;11.90;;;1.65;;
66542;SDS011;53395;37.360;-122.046;2023-02-28T09:44:38;10.48;;;2.00;;
66542;SDS011;53395;37.360;-122.046;2023-02-28T09:47:07;8.38;;;1.83;;
66542;SDS011;53395;37.360;-122.046;2023-02-28T09:49:42;9.07;;;2.20;;
66542;SDS011;53395;37.360;-122.046;2023-02-28T09:52:18;9.18;;;2.30;;
66542;SDS011;53395;37.360;-122.046;2023-02-28T09:54:44;6.90;;;1.80;;
66542;SDS011;53395;37.360;-122.046;2023-02-28T10:00:32;9.95;;;1.85;;
66542;SDS011;53395;37.360;-122.046;2023-02-28T10:05:24;8.48;;;2.08;;
66542;SDS011;53395;37.360;-122.046;2023-02-28T10:08:02;6.10;;;1.60;;
66542;SDS011;53395;37.360;-122.046;2023-02-28T10:13:04;6.80;;;1.80;;
66542;SDS011;53395;37.360;-122.046;2023-02-28T10:15:31;9.40;;;2.58;;
66542;SDS011;53395;37.360;-122.046;2023-02-28T10:18:03;11.27;;;1.80;;
66542;SDS011;53395;37.360;-122.046;2023-02-28T10:20:32;5.45;;;1.65;;
66542;SDS011;53395;37.360;-122.046;2023-02-28T10:25:28;11.30;;;1.75;;
66542;SDS011;53395;37.360;-122.046;2023-02-28T10:28:11;12.45;;;1.77;;
66542;SDS011;53395;37.360;-122.046;2023-02-28T10:30:39;5.88;;;1.48;;
66542;SDS011;53395;37.360;-122.046;2023-02-28T10:33:05;8.90;;;1.38;;
66542;SDS011;53395;37.360;-122.046;2023-02-28T10:35:31;6.22;;;1.65;;
66542;SDS011;53395;37.360;-122.046;2023-02-28T10:37:59;6.85;;;1.30;;
66542;SDS011;53395;37.360;-122.046;2023-02-28T10:45:23;10.75;;;1.60;;
66542;SDS011;53395;37.360;-122.046;2023-02-28T10:55:41;8.48;;;1.60;;
66542;SDS011;53395;37.360;-122.046;2023-02-28T10:58:26;10.55;;;1.63;;
66542;SDS011;53395;37.360;-122.046;2023-02-28T11:00:53;9.70;;;1.50;;
66542;SDS011;53395;37.360;-122.046;2023-02-28T11:03:23;10.02;;;1.33;;
66542;SDS011;53395;37.360;-122.046;2023-02-28T11:05:50;11.40;;;1.73;;
66542;SDS011;53395;37.360;-122.046;2023-02-28T11:08:16;6.25;;;1.35;;
66542;SDS011;53395;37.360;-122.046;2023-02-28T11:10:47;9.27;;;1.60;;
66542;SDS011;53395;37.360;-122.046;2023-02-28T11:13:17;7.78;;;1.13;;
66542;SDS011;53395;37.360;-122.046;2023-02-28T11:15:49;8.90;;;1.20;;
66542;SDS011;53395;37.360;-122.046;2023-02-28T11:18:21;6.65;;;1.40;;
66542;SDS011;53395;37.360;-122.046;2023-02-28T11:20:49;8.30;;;1.40;;
66542;SDS011;53395;37.360;-122.046;2023-02-28T11:23:16;8.80;;;1.67;;
66542;SDS011;53395;37.360;-122.046;2023-02-28T11:25:46;8.13;;;1.45;;
66542;SDS011;53395;37.360;-122.046;2023-02-28T11:28:29;8.70;;;1.48;;
66542;SDS011;53395;37.360;-122.046;2023-02-28T11:31:15;13.80;;;1.77;;
66542;SDS011;53395;37.360;-122.046;2023-02-28T11:38:41;7.50;;;1.20;;
66542;SDS011;53395;37.360;-122.046;2023-02-28T11:43:44;6.97;;;1.50;;
66542;SDS011;53395;37.360;-122.046;2023-02-28T11:56:23;6.90;;;1.00;;
66542;SDS011;53395;37.360;-122.046;2023-02-28T12:07:00;5.50;;;0.98;;
66542;SDS011;53395;37.360;-122.046;2023-02-28T12:27:36;6.72;;;1.15;;
66542;SDS011;53395;37.360;-122.046;2023-02-28T12:32:47;7.80;;;1.17;;
66542;SDS011;53395;37.360;-122.046;2023-02-28T12:35:19;6.18;;;1.20;;
66542;SDS011;53395;37.360;-122.046;2023-02-28T12:37:49;6.18;;;1.27;;
66542;SDS011;53395;37.360;-122.046;2023-02-28T12:40:20;6.32;;;1.30;;
66542;SDS011;53395;37.360;-122.046;2023-02-28T12:43:08;7.30;;;1.20;;
66542;SDS011;53395;37.360;-122.046;2023-02-28T12:45:47;8.52;;;1.25;;
66542;SDS011;53395;37.360;-122.046;2023-02-28T12:48:15;6.28;;;1.13;;
66542;SDS011;53395;37.360;-122.046;2023-02-28T12:50:44;6.30;;;1.95;;
66542;SDS011;53395;37.360;-122.046;2023-02-28T12:58:41;5.10;;;1.13;;
66542;SDS011;53395;37.360;-122.046;2023-02-28T13:03:52;9.00;;;1.50;;
66542;SDS011;53395;37.360;-122.046;2023-02-28T13:09:01;8.90;;;1.30;;
66542;SDS011;53395;37.360;-122.046;2023-02-28T13:11:29;7.90;;;1.58;;
66542;SDS011;53395;37.360;-122.046;2023-02-28T13:14:02;5.55;;;1.30;;
66542;SDS011;53395;37.360;-122.046;2023-02-28T13:16:46;10.35;;;1.55;;
66542;SDS011;53395;37.360;-122.046;2023-02-28T13:19:16;5.55;;;1.05;;
66542;SDS011;53395;37.360;-122.046;2023-02-28T13:21:43;6.45;;;1.08;;
66542;SDS011;53395;37.360;-122.046;2023-02-28T13:24:09;7.28;;;1.50;;
66542;SDS011;53395;37.360;-122.046;2023-02-28T13:29:21;8.77;;;1.98;;
66542;SDS011;53395;37.360;-122.046;2023-02-28T13:34:14;7.70;;;1.00;;
66542;SDS011;53395;37.360;-122.046;2023-02-28T13:36:40;4.70;;;0.93;;
66542;SDS011;53395;37.360;-122.046;2023-02-28T13:42:50;4.15;;;0.98;;
66542;SDS011;53395;37.360;-122.046;2023-02-28T13:45:33;4.55;;;0.63;;
66542;SDS011;53395;37.360;-122.046;2023-02-28T13:52:49;5.90;;;0.68;;
66542;SDS011;53395;37.360;-122.046;2023-02-28T13:58:04;4.97;;;0.85;;
66542;SDS011;53395;37.360;-122.046;2023-02-28T14:05:38;3.63;;;0.75;;
66542;SDS011;53395;37.360;-122.046;2023-02-28T14:08:14;6.53;;;1.00;;
66542;SDS011;53395;37.360;-122.046;2023-02-28T14:10:43;4.22;;;0.95;;
66542;SDS011;53395;37.360;-122.046;2023-02-28T14:15:38;6.20;;;1.13;;
66542;SDS011;53395;37.360;-122.046;2023-02-28T14:18:11;4.43;;;0.88;;
66542;SDS011;53395;37.360;-122.046;2023-02-28T14:20:40;2.63;;;0.50;;
66542;SDS011;53395;37.360;-122.046;2023-02-28T14:28:08;3.25;;;0.70;;
66542;SDS011;53395;37.360;-122.046;2023-02-28T14:38:39;3.50;;;0.70;;
66542;SDS011;53395;37.360;-122.046;2023-02-28T14:41:12;4.95;;;0.63;;
66542;SDS011;53395;37.360;-122.046;2023-02-28T14:43:47;5.07;;;0.63;;
66542;SDS011;53395;37.360;-122.046;2023-02-28T14:48:38;5.63;;;1.00;;
66542;SDS011;53395;37.360;-122.046;2023-02-28T14:51:04;2.80;;;0.60;;
66542;SDS011;53395;37.360;-122.046;2023-02-28T14:53:34;9.85;;;0.82;;
66542;SDS011;53395;37.360;-122.046;2023-02-28T14:56:03;4.60;;;0.55;;
66542;SDS011;53395;37.360;-122.046;2023-02-28T14:58:31;3.72;;;0.90;;
66542;SDS011;53395;37.360;-122.046;2023-02-28T15:00:58;1.27;;;0.43;;
66542;SDS011;53395;37.360;-122.046;2023-02-28T15:05:54;4.78;;;0.57;;
66542;SDS011;53395;37.360;-122.046;2023-02-28T15:08:20;4.45;;;0.60;;
66542;SDS011;53395;37.360;-122.046;2023-02-28T15:10:59;8.38;;;1.15;;
66542;SDS011;53395;37.360;-122.046;2023-02-28T15:13:28;4.97;;;0.63;;
66542;SDS011;53395;37.360;-122.046;2023-02-28T15:21:06;2.42;;;0.40;;
66542;SDS011;53395;37.360;-122.046;2023-02-28T15:23:34;2.13;;;0.50;;
66542;SDS011;53395;37.360;-122.046;2023-02-28T15:26:01;4.22;;;0.60;;
66542;SDS011;53395;37.360;-122.046;2023-02-28T15:28:28;3.15;;;0.60;;
66542;SDS011;53395;37.360;-122.046;2023-02-28T15:31:03;5.30;;;0.60;;
66542;SDS011;53395;37.360;-122.046;2023-02-28T15:33:30;1.42;;;0.32;;
66542;SDS011;53395;37.360;-122.046;2023-02-28T15:36:06;1.15;;;0.30;;
66542;SDS011;53395;37.360;-122.046;2023-02-28T15:38:33;2.47;;;0.40;;
66542;SDS011;53395;37.360;-122.046;2023-02-28T15:41:00;3.72;;;0.40;;
66542;SDS011;53395;37.360;-122.046;2023-02-28T15:45:55;1.40;;;0.35;;
66542;SDS011;53395;37.360;-122.046;2023-02-28T15:48:22;2.10;;;0.40;;
66542;SDS011;53395;37.360;-122.046;2023-02-28T15:51:01;2.67;;;0.70;;
66542;SDS011;53395;37.360;-122.046;2023-02-28T15:53:32;2.13;;;0.50;;
66542;SDS011;53395;37.360;-122.046;2023-02-28T15:56:00;5.45;;;0.50;;
66542;SDS011;53395;37.360;-122.046;2023-02-28T15:58:26;2.15;;;0.32;;
66542;SDS011;53395;37.360;-122.046;2023-02-28T16:01:05;3.17;;;0.52;;
66542;SDS011;53395;37.360;-122.046;2023-02-28T16:03:50;1.80;;;0.50;;
66542;SDS011;53395;37.360;-122.046;2023-02-28T16:08:42;2.58;;;0.40;;
66542;SDS011;53395;37.360;-122.046;2023-02-28T16:11:09;3.67;;;0.40;;
66542;SDS011;53395;37.360;-122.046;2023-02-28T16:13:36;3.75;;;0.63;;
66542;SDS011;53395;37.360;-122.046;2023-02-28T16:16:02;1.67;;;0.40;;
66542;SDS011;53395;37.360;-122.046;2023-02-28T16:18:28;2.65;;;0.70;;
66542;SDS011;53395;37.360;-122.046;2023-02-28T16:20:54;1.83;;;0.32;;
66542;SDS011;53395;37.360;-122.046;2023-02-28T16:23:19;3.22;;;0.40;;
66542;SDS011;53395;37.360;-122.046;2023-02-28T16:25:45;1.55;;;0.47;;
66542;SDS011;53395;37.360;-122.046;2023-02-28T16:28:14;3.03;;;0.30;;
66542;SDS011;53395;37.360;-122.046;2023-02-28T16:30:43;0.65;;;0.25;;
66542;SDS011;53395;37.360;-122.046;2023-02-28T16:33:09;1.33;;;0.43;;
66542;SDS011;53395;37.360;-122.046;2023-02-28T16:35:35;1.10;;;0.28;;
66542;SDS011;53395;37.360;-122.046;2023-02-28T16:38:00;0.77;;;0.20;;
66542;SDS011;53395;37.360;-122.046;2023-02-28T16:40:26;2.33;;;0.40;;
66542;SDS011;53395;37.360;-122.046;2023-02-28T16:42:54;1.08;;;0.30;;
66542;SDS011;53395;37.360;-122.046;2023-02-28T16:45:22;0.80;;;0.32;;
66542;SDS011;53395;37.360;-122.046;2023-02-28T16:47:48;1.40;;;0.60;;
66542;SDS011;53395;37.360;-122.046;2023-02-28T16:50:22;2.90;;;0.38;;
66542;SDS011;53395;37.360;-122.046;2023-02-28T16:52:48;1.77;;;0.30;;
66542;SDS011;53395;37.360;-122.046;2023-02-28T16:55:15;0.45;;;0.20;;
66542;SDS011;53395;37.360;-122.046;2023-02-28T16:57:41;1.80;;;0.40;;
66542;SDS011;53395;37.360;-122.046;2023-02-28T17:00:08;1.58;;;0.20;;
66542;SDS011;53395;37.360;-122.046;2023-02-28T17:02:34;0.35;;;0.17;;